Time;durP1;ratioP1;P1;durP2;ratioP2;P2;SDS_P1;SDS_P2;PMS_P1;PMS_P2;Temp;Humidity;BMP_temperature;BMP_pressure;BME280_temperature;BME280_humidity;BME280_pressure;Samples;Min_cycle;Max_cycle;Signal;HPM_P1;HPM_P2
2022/01/21 00:00:49;;;;;;;;;11.00;11.00;;;;;2.39;94.04;100524.41;5118927;27;11475;-70
2022/01/21 00:03:45;;;;;;;;;12.00;11.25;;;;;2.27;93.35;100510.28;5132461;27;12262;-70
2022/01/21 00:06:27;;;;;;;;;13.50;13.50;;;;;2.22;94.67;100507.56;5132003;27;12323;-70
2022/01/21 00:09:22;;;;;;;;;12.25;12.25;;;;;2.34;93.50;100502.59;5129332;27;11478;-70
2022/01/21 00:12:18;;;;;;;;;15.25;12.25;;;;;2.30;94.26;100503.44;5116806;28;11465;-71
2022/01/21 00:15:14;;;;;;;;;18.00;14.25;;;;;2.23;94.20;100492.84;5123073;27;11587;-71
2022/01/21 00:17:43;;;;;;;;;12.75;12.75;;;;;2.22;93.81;100472.94;5137689;27;11493;-71
2022/01/21 00:30:24;;;;;;;;;13.25;10.75;;;;;2.12;94.48;100478.41;5116721;28;11489;-69
2022/01/21 00:33:20;;;;;;;;;14.75;14.75;;;;;2.25;94.46;100485.19;5102471;28;11645;-70
2022/01/21 00:36:16;;;;;;;;;11.00;11.00;;;;;2.36;93.10;100481.28;5115878;28;11561;-70
2022/01/21 00:38:44;;;;;;;;;17.00;17.00;;;;;2.29;93.24;100471.78;5116864;28;11580;-70
2022/01/21 00:41:52;;;;;;;;;19.00;17.75;;;;;2.23;93.04;100474.56;5101955;28;12315;-70
2022/01/21 00:44:49;;;;;;;;;15.50;15.50;;;;;2.13;93.45;100474.59;5117848;27;11486;-69
2022/01/21 00:47:45;;;;;;;;;18.00;18.00;;;;;2.12;94.59;100464.78;5136031;27;11595;-69
2022/01/21 00:50:40;;;;;;;;;16.25;16.25;;;;;2.08;94.10;100452.81;5122629;27;11451;-70
2022/01/21 00:53:36;;;;;;;;;18.75;17.00;;;;;2.14;93.26;100448.94;5136385;27;11490;-70
2022/01/21 00:56:31;;;;;;;;;11.50;10.50;;;;;2.11;93.52;100433.13;5134273;27;12242;-70
2022/01/21 00:59:27;;;;;;;;;16.75;16.00;;;;;1.98;94.32;100422.84;5121851;27;11491;-71
2022/01/21 01:02:22;;;;;;;;;20.50;18.50;;;;;1.84;94.51;100429.97;5122974;27;11603;-71
2022/01/21 01:05:18;;;;;;;;;15.25;15.25;;;;;1.85;94.76;100423.47;5122078;27;11613;-71
2022/01/21 01:07:46;;;;;;;;;20.50;17.00;;;;;1.78;94.45;100431.94;5136541;27;11448;-71
2022/01/21 01:10:48;;;;;;;;;12.75;12.75;;;;;1.91;94.76;100444.13;5134878;27;11493;-71
2022/01/21 01:20:13;;;;;;;;;18.75;17.50;;;;;1.82;93.67;100464.91;5135521;27;11521;-70
2022/01/21 01:23:23;;;;;;;;;20.75;20.75;;;;;1.60;94.54;100467.97;5135579;27;11489;-71
2022/01/21 01:29:32;;;;;;;;;22.75;21.00;;;;;1.69;94.20;100479.97;5114639;28;11474;-70
2022/01/21 01:32:13;;;;;;;;;15.50;15.50;;;;;1.72;94.11;100484.03;5099110;28;12522;-70
2022/01/21 01:35:12;;;;;;;;;14.25;14.25;;;;;1.64;94.55;100490.88;5114847;27;11475;-69
2022/01/21 01:40:50;;;;;;;;;14.25;12.00;;;;;1.57;94.96;100498.50;5128872;27;11577;-70
2022/01/21 01:50:13;;;;;;;;;17.00;14.25;;;;;1.72;93.48;100486.75;5126971;27;11491;-70
2022/01/21 01:53:09;;;;;;;;;14.00;14.00;;;;;1.58;93.13;100481.88;5135019;27;12324;-70
2022/01/21 01:56:10;;;;;;;;;18.75;18.75;;;;;1.54;94.35;100472.63;5123082;27;11610;-70
2022/01/21 01:59:05;;;;;;;;;16.00;16.00;;;;;1.47;94.09;100468.56;5101290;28;11562;-70
2022/01/21 02:02:09;;;;;;;;;21.50;17.00;;;;;1.53;93.52;100456.53;5114687;27;11487;-70
2022/01/21 02:05:05;;;;;;;;;17.00;15.75;;;;;1.53;93.59;100449.16;5129450;27;11489;-70
2022/01/21 02:08:01;;;;;;;;;21.00;19.75;;;;;1.48;94.53;100432.03;5114012;28;11476;-70
2022/01/21 02:10:56;;;;;;;;;15.50;15.50;;;;;1.46;93.72;100431.47;5101117;28;11533;-70
2022/01/21 02:13:58;;;;;;;;;18.50;18.50;;;;;1.33;94.24;100439.16;5101224;28;11556;-71
2022/01/21 02:22:47;;;;;;;;;21.25;21.25;;;;;1.31;95.07;100438.59;5135438;27;11489;-71
2022/01/21 02:25:43;;;;;;;;;21.50;21.50;;;;;1.33;94.62;100432.88;5128028;27;11584;-70
2022/01/21 02:28:40;;;;;;;;;20.00;19.25;;;;;1.28;94.22;100430.16;5113549;28;11477;-71
2022/01/21 02:31:38;;;;;;;;;24.50;20.75;;;;;1.24;93.98;100442.72;5113504;28;11514;-70
2022/01/21 02:34:34;;;;;;;;;20.67;20.67;;;;;1.31;93.40;100440.53;5113576;28;11533;-70
2022/01/21 02:37:29;;;;;;;;;18.25;17.00;;;;;1.14;94.52;100443.50;5116841;27;12257;-70
2022/01/21 02:40:25;;;;;;;;;19.00;19.00;;;;;1.02;94.08;100438.38;5113484;28;11614;-69
2022/01/21 02:43:21;;;;;;;;;21.33;19.33;;;;;0.98;94.63;100445.44;5118951;27;11499;-69
2022/01/21 02:46:17;;;;;;;;;17.67;17.67;;;;;0.93;95.66;100450.09;5115085;27;11476;-69
2022/01/21 02:49:13;;;;;;;;;23.67;21.67;;;;;0.86;95.71;100455.00;5099662;28;11519;-70
2022/01/21 02:52:09;;;;;;;;;16.67;16.67;;;;;0.81;95.73;100463.97;5113512;28;11489;-69
2022/01/21 02:55:05;;;;;;;;;19.67;19.00;;;;;0.75;95.94;100462.31;5113242;28;9711;-70
2022/01/21 02:58:01;;;;;;;;;17.67;16.67;;;;;0.62;96.16;100474.56;5113111;28;11552;-71
2022/01/21 03:00:31;;;;;;;;;27.33;26.00;;;;;0.68;96.60;100478.91;5114436;28;11565;-71
2022/01/21 03:03:03;;;;;;;;;22.67;21.33;;;;;0.55;96.85;100484.91;5113944;28;11515;-70
2022/01/21 03:06:00;;;;;;;;;19.33;19.33;;;;;0.57;96.80;100482.72;5113258;27;8932;-70
2022/01/21 03:08:58;;;;;;;;;22.67;22.00;;;;;0.71;96.24;100489.28;5092643;28;8953;-70
2022/01/21 03:11:54;;;;;;;;;26.67;26.33;;;;;0.69;95.85;100502.34;5093243;28;8890;-70
2022/01/21 03:14:50;;;;;;;;;35.00;29.33;;;;;0.57;96.31;100509.94;5092028;28;8815;-70
2022/01/21 03:17:46;;;;;;;;;28.00;28.00;;;;;0.53;95.91;100496.03;5092242;28;8823;-70
2022/01/21 03:20:42;;;;;;;;;34.67;33.00;;;;;0.57;96.08;100500.94;5092569;28;8977;-70
2022/01/21 03:23:15;;;;;;;;;27.00;27.00;;;;;0.55;95.92;100484.91;5093113;28;8846;-70
2022/01/21 03:26:11;;;;;;;;;31.00;31.00;;;;;0.47;95.68;100478.09;5093418;28;9005;-69
2022/01/21 03:29:06;;;;;;;;;25.67;24.33;;;;;0.53;96.19;100476.16;5092971;28;9568;-70
2022/01/21 03:32:02;;;;;;;;;35.67;32.00;;;;;0.55;95.46;100474.00;5093490;28;8846;-69
2022/01/21 03:34:31;;;;;;;;;30.33;29.00;;;;;0.57;95.30;100473.75;5092415;28;8851;-69
2022/01/21 03:37:27;;;;;;;;;35.67;34.67;;;;;0.58;95.96;100475.38;5093372;28;8819;-69
2022/01/21 03:40:23;;;;;;;;;36.33;29.33;;;;;0.62;95.07;100462.88;5093858;28;8831;-70
2022/01/21 03:43:20;;;;;;;;;28.00;25.00;;;;;0.45;95.55;100479.41;5092834;28;8907;-69
2022/01/21 03:46:17;;;;;;;;;30.67;27.67;;;;;0.48;95.77;100485.16;5098523;28;9545;-70
2022/01/21 03:49:12;;;;;;;;;30.33;30.33;;;;;0.46;95.28;100475.59;5113442;28;8905;-69
2022/01/21 03:52:09;;;;;;;;;43.33;42.33;;;;;0.46;95.59;100459.28;5113781;28;8844;-69
2022/01/21 03:55:05;;;;;;;;;44.67;39.00;;;;;0.42;95.70;100458.19;5112572;28;8844;-69
2022/01/21 03:58:04;;;;;;;;;31.67;31.00;;;;;0.52;95.55;100474.53;5100908;28;9640;-70
2022/01/21 04:00:59;;;;;;;;;29.00;28.00;;;;;0.38;95.85;100474.22;5098634;28;8828;-70
2022/01/21 04:03:27;;;;;;;;;31.67;29.67;;;;;0.40;95.34;100491.13;5105493;28;9615;-69
2022/01/21 04:05:55;;;;;;;;;32.67;30.33;;;;;0.38;95.10;100497.91;5108832;28;8875;-70
2022/01/21 04:08:51;;;;;;;;;35.33;33.67;;;;;0.34;95.37;100504.97;5126402;28;8849;-69
2022/01/21 04:11:47;;;;;;;;;36.00;33.33;;;;;0.37;95.35;100502.53;5112799;28;8841;-70
2022/01/21 04:14:38;;;;;;;;;41.00;37.00;;;;;0.35;95.51;100517.47;5098918;28;8849;-69
2022/01/21 04:17:05;;;;;;;;;47.33;44.00;;;;;0.40;95.29;100512.06;5113221;28;9630;-69
2022/01/21 04:20:03;;;;;;;;;41.00;40.00;;;;;0.45;94.76;100517.50;5099637;28;8833;-69
2022/01/21 04:22:32;;;;;;;;;47.00;44.00;;;;;0.45;94.60;100503.91;5132572;27;8851;-69
2022/01/21 04:25:13;;;;;;;;;35.67;34.67;;;;;0.41;94.20;100527.31;5133625;27;8870;-69
2022/01/21 04:27:41;;;;;;;;;42.00;42.00;;;;;0.40;93.91;100533.84;5115832;27;8839;-69
2022/01/21 04:30:38;;;;;;;;;35.67;32.00;;;;;0.44;94.21;100537.66;5128042;28;9547;-70
2022/01/21 04:33:33;;;;;;;;;42.67;40.33;;;;;0.52;93.85;100529.78;5098617;28;8821;-70
2022/01/21 04:36:29;;;;;;;;;39.33;37.33;;;;;0.46;92.87;100535.47;5101823;28;8833;-69
2022/01/21 04:39:30;;;;;;;;;45.33;44.67;;;;;0.54;92.27;100541.22;5116362;28;8856;-71
2022/01/21 04:48:54;;;;;;;;;35.33;28.00;;;;;0.65;91.53;100558.41;5126739;27;9638;-70
2022/01/21 04:52:12;;;;;;;;;46.67;38.00;;;;;0.58;91.35;100560.56;5136080;27;9618;-69
2022/01/21 04:54:39;;;;;;;;;36.00;31.33;;;;;0.57;91.72;100558.91;5124718;27;9707;-69
2022/01/21 04:57:34;;;;;;;;;36.00;34.67;;;;;0.54;91.69;100554.03;5134065;27;8879;-69
2022/01/21 05:00:30;;;;;;;;;43.67;43.67;;;;;0.52;91.86;100567.06;5125591;27;8833;-69
2022/01/21 05:03:26;;;;;;;;;38.00;35.67;;;;;0.49;91.96;100567.59;5135257;27;8831;-69
2022/01/21 05:05:54;;;;;;;;;35.00;33.67;;;;;0.61;91.28;100556.47;5116426;28;8842;-69
2022/01/21 05:08:54;;;;;;;;;46.33;41.67;;;;;0.47;91.71;100559.72;5107605;27;8819;-69
2022/01/21 05:11:52;;;;;;;;;48.00;44.67;;;;;0.49;91.09;100557.53;5103975;27;8901;-69
2022/01/21 05:17:49;;;;;;;;;46.67;41.67;;;;;0.47;90.98;100573.31;5115604;28;8841;-69
2022/01/21 05:20:17;;;;;;;;;45.00;42.33;;;;;0.69;90.30;100570.41;5118574;27;8847;-70
2022/01/21 05:22:46;;;;;;;;;52.33;46.67;;;;;0.69;89.81;100578.56;5126295;27;8839;-69
2022/01/21 05:25:41;;;;;;;;;34.33;34.33;;;;;0.63;90.44;100567.91;5101336;28;8825;-71
2022/01/21 05:28:40;;;;;;;;;43.33;41.00;;;;;0.54;90.51;100573.06;5117189;27;8911;-69
2022/01/21 05:31:36;;;;;;;;;47.67;43.67;;;;;0.56;90.76;100573.63;5116288;27;8848;-70
2022/01/21 05:34:33;;;;;;;;;32.67;30.67;;;;;0.58;90.05;100573.34;5135369;27;8831;-70
2022/01/21 05:37:20;;;;;;;;;46.00;44.00;;;;;0.57;90.58;100585.31;5132659;27;8839;-70
2022/01/21 05:40:23;;;;;;;;;40.33;37.33;;;;;0.43;91.05;100587.72;5117932;27;8834;-72
2022/01/21 05:43:19;;;;;;;;;48.67;42.33;;;;;0.58;91.02;100587.75;5113976;27;8843;-72
2022/01/21 05:48:33;;;;;;;;;46.33;44.00;;;;;0.56;90.24;100587.22;5135817;27;8884;-72
2022/01/21 05:51:01;;;;;;;;;42.00;40.67;;;;;0.55;90.63;100583.69;5135611;27;8893;-72
2022/01/21 05:53:29;;;;;;;;;51.33;45.67;;;;;0.52;90.94;100581.47;5136200;27;9560;-73
2022/01/21 05:56:01;;;;;;;;;52.00;44.00;;;;;0.59;91.50;100585.84;5136213;27;8835;-72
2022/01/21 05:58:29;;;;;;;;;48.00;44.00;;;;;0.67;91.01;100588.06;5135866;27;8939;-72
2022/01/21 06:00:58;;;;;;;;;49.67;47.33;;;;;0.61;91.45;100602.72;5117829;27;8863;-72
2022/01/21 06:03:26;;;;;;;;;47.00;43.33;;;;;0.72;91.00;100591.63;5136087;27;8850;-72
2022/01/21 06:05:53;;;;;;;;;24.67;22.33;;;;;0.73;90.74;100587.81;5117430;27;8851;-72
2022/01/21 06:08:21;;;;;;;;;50.33;45.67;;;;;0.65;90.85;100596.50;5135661;27;8838;-72
2022/01/21 06:10:49;;;;;;;;;44.00;43.67;;;;;0.65;91.56;100582.88;5135494;27;9046;-72
2022/01/21 06:13:18;;;;;;;;;50.67;47.33;;;;;0.76;90.99;100594.63;5135913;27;8877;-72
2022/01/21 06:15:47;;;;;;;;;55.33;49.00;;;;;0.72;91.08;100597.06;5135425;27;8827;-72
2022/01/21 06:18:15;;;;;;;;;54.67;48.33;;;;;0.82;91.17;100586.19;5135250;27;9059;-73
2022/01/21 06:20:43;;;;;;;;;55.67;50.00;;;;;0.83;90.86;100585.09;5135487;27;8839;-72
2022/01/21 06:23:11;;;;;;;;;66.00;54.33;;;;;0.98;90.57;100587.03;5135466;27;8843;-72
2022/01/21 06:25:39;;;;;;;;;70.33;56.00;;;;;1.04;90.12;100577.81;5117440;27;8825;-73
2022/01/21 06:28:06;;;;;;;;;54.67;48.33;;;;;1.07;89.85;100576.44;5117375;27;8847;-72
2022/01/21 06:30:34;;;;;;;;;60.00;49.67;;;;;1.09;89.23;100585.19;5135414;27;8824;-72
2022/01/21 06:33:09;;;;;;;;;57.33;51.33;;;;;1.18;88.21;100593.63;5135504;27;9592;-72
2022/01/21 06:35:36;;;;;;;;;58.33;47.33;;;;;1.20;89.30;100592.25;5135292;27;8827;-73
2022/01/21 06:38:04;;;;;;;;;53.00;46.33;;;;;1.22;88.98;100591.97;5135089;27;9015;-72
2022/01/21 06:40:33;;;;;;;;;42.00;40.33;;;;;1.23;88.57;100593.66;5117179;27;8900;-72
2022/01/21 06:43:06;;;;;;;;;46.00;42.67;;;;;1.32;88.68;100597.47;5134814;27;8847;-72
2022/01/21 06:45:36;;;;;;;;;39.33;34.33;;;;;1.30;88.33;100603.19;5117090;27;11638;-72
2022/01/21 06:48:04;;;;;;;;;39.00;36.33;;;;;1.33;88.57;100610.00;5116882;27;8843;-72
2022/01/21 06:50:35;;;;;;;;;26.33;25.33;;;;;1.01;89.15;100612.94;5113089;28;11644;-72
2022/01/21 06:53:03;;;;;;;;;36.67;32.00;;;;;1.10;89.49;100619.50;5113181;28;11499;-73
2022/01/21 06:55:31;;;;;;;;;44.00;39.33;;;;;1.27;89.34;100614.59;5116620;27;11533;-73
2022/01/21 06:58:04;;;;;;;;;50.33;44.33;;;;;1.31;89.74;100610.25;5122270;27;8837;-70
2022/01/21 07:00:33;;;;;;;;;35.00;35.00;;;;;1.58;90.55;100612.72;5100505;27;8850;-69
2022/01/21 07:03:01;;;;;;;;;41.33;41.33;;;;;1.88;90.31;100611.88;5119037;27;8837;-70
2022/01/21 07:05:29;;;;;;;;;41.67;40.00;;;;;2.01;88.63;100615.97;5113835;28;11525;-69
2022/01/21 07:07:59;;;;;;;;;39.00;36.00;;;;;2.09;90.12;100615.41;5112285;28;11526;-70
2022/01/21 07:10:48;;;;;;;;;39.00;37.00;;;;;2.40;91.21;100632.50;5117803;27;11503;-69
2022/01/21 07:13:30;;;;;;;;;39.33;37.00;;;;;2.38;88.90;100633.88;5117902;27;11531;-70
2022/01/21 07:16:25;;;;;;;;;36.33;35.67;;;;;2.06;86.05;100635.03;5122180;27;11591;-73
2022/01/21 07:19:21;;;;;;;;;43.00;41.00;;;;;1.91;86.39;100626.88;5113512;28;11536;-73
2022/01/21 07:22:16;;;;;;;;;36.00;33.33;;;;;1.79;86.45;100626.34;5117735;27;12254;-72
2022/01/21 07:25:13;;;;;;;;;31.67;30.67;;;;;1.56;87.37;100617.63;5112703;28;11592;-72
2022/01/21 07:27:42;;;;;;;;;39.33;39.00;;;;;1.80;86.86;100622.53;5123763;27;11509;-74
2022/01/21 07:30:38;;;;;;;;;40.33;38.00;;;;;1.75;86.75;100623.34;5132210;27;11610;-73
2022/01/21 07:33:33;;;;;;;;;43.67;43.00;;;;;1.66;87.38;100619.53;5128639;27;11484;-72
2022/01/21 07:36:29;;;;;;;;;39.67;39.67;;;;;1.88;87.49;100641.06;5122166;27;11597;-73
2022/01/21 07:39:24;;;;;;;;;49.67;45.00;;;;;1.98;86.94;100638.31;5112385;28;11531;-72
2022/01/21 07:42:20;;;;;;;;;29.00;26.50;;;;;1.72;86.38;100634.78;5113958;27;8926;-72
2022/01/21 07:45:15;;;;;;;;;14.33;13.33;;;;;1.82;87.00;100644.88;5132777;27;11695;-71
2022/01/21 07:48:11;;;;;;;;;33.33;32.00;;;;;1.57;86.49;100656.59;5131985;27;12480;-72
2022/01/21 07:51:07;;;;;;;;;23.67;19.67;;;;;1.66;87.29;100660.41;5132441;27;12236;-72
2022/01/21 07:54:03;;;;;;;;;23.25;20.75;;;;;1.57;87.46;100665.59;5124137;28;8872;-72
2022/01/21 07:56:59;;;;;;;;;32.67;29.33;;;;;1.76;87.58;100663.13;5098542;28;11477;-71
2022/01/21 07:59:55;;;;;;;;;46.00;40.67;;;;;1.61;87.12;100677.59;5112324;28;11500;-73
2022/01/21 08:02:50;;;;;;;;;26.67;26.67;;;;;1.43;87.99;100675.41;5113070;28;11505;-72
2022/01/21 08:05:47;;;;;;;;;42.00;33.00;;;;;1.33;88.83;100680.84;5112301;28;11562;-73
2022/01/21 08:08:14;;;;;;;;;35.33;34.00;;;;;1.39;88.87;100679.75;5113342;28;8856;-73
2022/01/21 08:11:10;;;;;;;;;31.33;30.00;;;;;1.27;89.73;100681.91;5115469;28;8913;-72
2022/01/21 08:13:38;;;;;;;;;40.67;34.33;;;;;1.38;88.68;100683.53;5099502;28;8829;-72
2022/01/21 08:16:35;;;;;;;;;37.33;37.33;;;;;1.36;89.03;100685.72;5116180;28;8936;-73
2022/01/21 08:19:31;;;;;;;;;51.00;41.33;;;;;1.31;89.22;100694.72;5116320;28;8955;-73
2022/01/21 08:21:58;;;;;;;;;37.67;37.67;;;;;1.43;89.59;100693.66;5100092;28;8909;-73
2022/01/21 08:24:55;;;;;;;;;43.33;40.67;;;;;1.50;89.25;100694.22;5102704;28;8849;-72
2022/01/21 08:27:50;;;;;;;;;47.67;45.67;;;;;1.61;89.61;100690.41;5110309;27;8831;-72
2022/01/21 08:30:46;;;;;;;;;33.00;29.67;;;;;1.33;91.48;100698.00;5127893;27;8935;-73
2022/01/21 08:33:14;;;;;;;;;54.67;46.33;;;;;1.39;91.10;100691.47;5117117;28;8829;-73
2022/01/21 08:36:11;;;;;;;;;44.33;42.00;;;;;1.21;92.50;100691.97;5115707;28;8834;-73
2022/01/21 08:38:47;;;;;;;;;46.00;43.00;;;;;1.28;92.98;100695.25;5116852;28;8829;-73
2022/01/21 08:41:42;;;;;;;;;43.67;43.00;;;;;1.33;93.87;100691.72;5127157;27;8889;-73
2022/01/21 08:44:39;;;;;;;;;52.67;47.00;;;;;1.38;93.42;100689.84;5136115;27;8854;-74
2022/01/21 08:47:27;;;;;;;;;44.33;43.00;;;;;1.43;93.91;100699.09;5136755;27;8847;-72
2022/01/21 08:50:19;;;;;;;;;48.00;44.67;;;;;1.44;94.70;100701.56;5135943;27;8918;-72
2022/01/21 08:56:29;;;;;;;;;49.33;42.33;;;;;1.48;93.92;100704.56;5115544;28;9562;-72
2022/01/21 08:59:26;;;;;;;;;43.33;43.00;;;;;1.42;94.15;100701.00;5115638;28;8841;-73
2022/01/21 09:02:22;;;;;;;;;57.33;46.67;;;;;1.48;94.50;100699.13;5134523;27;8854;-71
2022/01/21 09:05:17;;;;;;;;;42.33;41.00;;;;;1.47;94.56;100708.38;5108610;27;9575;-72
2022/01/21 09:08:13;;;;;;;;;46.33;43.00;;;;;1.54;93.71;100698.88;5135688;27;9599;-73
2022/01/21 09:11:09;;;;;;;;;50.33;46.00;;;;;1.57;94.20;100705.66;5127624;27;8835;-71
2022/01/21 09:13:51;;;;;;;;;42.00;42.00;;;;;1.60;93.78;100699.66;5102481;28;8845;-71
2022/01/21 09:16:46;;;;;;;;;41.00;38.67;;;;;1.60;93.32;100702.38;5109950;27;8873;-71
2022/01/21 09:19:42;;;;;;;;;51.00;46.00;;;;;1.44;93.65;100712.44;5122751;27;8850;-72
2022/01/21 09:22:37;;;;;;;;;54.33;46.00;;;;;1.51;94.18;100714.91;5120596;27;8839;-72
2022/01/21 09:25:19;;;;;;;;;50.33;46.00;;;;;1.58;94.27;100704.56;5135493;27;8877;-71
2022/01/21 09:27:46;;;;;;;;;42.67;40.67;;;;;1.54;94.04;100708.94;5136692;27;8877;-71
2022/01/21 09:30:42;;;;;;;;;40.00;40.00;;;;;1.56;93.88;100709.50;5131409;27;8861;-71
2022/01/21 09:33:39;;;;;;;;;44.00;43.33;;;;;1.73;93.01;100710.03;5124075;27;9567;-71
2022/01/21 09:36:35;;;;;;;;;42.67;39.33;;;;;1.43;93.50;100699.91;5121128;27;8847;-72
2022/01/21 09:39:30;;;;;;;;;34.67;32.33;;;;;1.67;93.53;100713.84;5124545;27;8863;-73
2022/01/21 09:42:27;;;;;;;;;40.67;35.33;;;;;1.44;92.62;100714.34;5123616;27;8861;-73
2022/01/21 09:45:24;;;;;;;;;48.00;44.67;;;;;1.30;93.85;100714.91;5114799;28;12280;-73
2022/01/21 09:48:24;;;;;;;;;47.33;43.33;;;;;1.37;94.37;100715.44;5114294;28;8854;-73
2022/01/21 09:51:21;;;;;;;;;39.67;39.33;;;;;1.27;94.53;100703.69;5114403;28;8848;-73
2022/01/21 09:54:17;;;;;;;;;53.67;46.33;;;;;1.42;95.01;100709.19;5115682;27;8833;-72
2022/01/21 09:57:31;;;;;;;;;48.00;45.33;;;;;1.27;94.83;100715.41;5114103;28;8864;-73
2022/01/21 10:00:28;;;;;;;;;44.00;40.33;;;;;1.11;94.66;100713.72;5113391;28;11515;-73
2022/01/21 10:03:24;;;;;;;;;46.67;41.67;;;;;1.28;94.29;100706.16;5111639;27;8939;-73
2022/01/21 10:06:25;;;;;;;;;44.00;41.33;;;;;1.32;95.56;100710.00;5134761;27;9560;-73
2022/01/21 10:09:22;;;;;;;;;33.67;31.00;;;;;1.20;94.31;100708.59;5134576;27;8843;-74
2022/01/21 10:11:52;;;;;;;;;52.67;47.00;;;;;1.37;94.15;100701.81;5135513;27;8831;-72
2022/01/21 10:14:22;;;;;;;;;44.67;42.33;;;;;1.44;94.65;100693.38;5135627;27;8911;-73
2022/01/21 10:16:51;;;;;;;;;53.00;47.33;;;;;1.39;92.96;100691.47;5135375;27;9012;-73
2022/01/21 10:19:27;;;;;;;;;42.00;37.33;;;;;1.22;94.28;100693.59;5135519;27;8935;-73
2022/01/21 10:22:11;;;;;;;;;43.00;37.67;;;;;1.32;93.59;100687.38;5135316;27;8823;-73
2022/01/21 10:25:00;;;;;;;;;43.33;42.67;;;;;1.36;91.86;100688.47;5117218;27;8855;-73
2022/01/21 10:27:35;;;;;;;;;40.00;35.33;;;;;1.39;92.29;100701.56;5116942;27;8839;-73
2022/01/21 10:30:28;;;;;;;;;49.00;41.67;;;;;1.52;92.20;100695.56;5135991;27;8878;-73
2022/01/21 10:32:56;;;;;;;;;47.00;43.67;;;;;1.54;91.61;100692.59;5134630;27;8969;-73
2022/01/21 10:35:35;;;;;;;;;50.33;46.00;;;;;1.63;90.21;100689.06;5135233;27;8831;-73
2022/01/21 10:38:17;;;;;;;;;44.67;40.33;;;;;1.74;88.67;100687.13;5101115;27;8937;-73
2022/01/21 10:40:49;;;;;;;;;39.67;38.67;;;;;1.63;89.27;100694.50;5134962;27;8827;-73
2022/01/21 10:43:21;;;;;;;;;39.33;36.67;;;;;1.65;88.89;100708.69;5117627;27;8831;-72
2022/01/21 10:45:57;;;;;;;;;49.00;39.33;;;;;1.71;88.34;100705.97;5117154;27;8843;-71
2022/01/21 10:48:30;;;;;;;;;51.00;46.67;;;;;1.55;87.91;100697.78;5134704;27;8941;-70
2022/01/21 10:51:16;;;;;;;;;58.67;48.67;;;;;1.57;87.86;100697.50;5135204;27;8927;-70
2022/01/21 10:53:45;;;;;;;;;46.67;43.00;;;;;1.41;87.87;100696.66;5134305;27;8842;-71
2022/01/21 10:56:17;;;;;;;;;43.67;40.00;;;;;1.49;87.44;100703.47;5134763;27;8847;-71
2022/01/21 10:58:51;;;;;;;;;61.67;47.67;;;;;1.69;87.11;100695.34;5132145;27;8949;-70
2022/01/21 11:01:23;;;;;;;;;56.33;48.33;;;;;1.55;86.95;100697.78;5124097;27;8850;-70
2022/01/21 11:04:19;;;;;;;;;41.33;41.33;;;;;1.64;86.47;100706.22;5123384;27;8999;-70
2022/01/21 11:06:52;;;;;;;;;48.00;45.67;;;;;1.67;87.71;100706.50;5116267;27;8902;-70
2022/01/21 11:09:52;;;;;;;;;53.00;44.33;;;;;1.81;86.32;100697.78;5113927;28;8841;-70
2022/01/21 11:12:22;;;;;;;;;48.67;45.33;;;;;1.71;86.06;100695.88;5095799;28;8837;-70
2022/01/21 11:14:57;;;;;;;;;47.33;43.67;;;;;1.86;85.62;100686.88;5113852;28;8963;-69
2022/01/21 11:17:26;;;;;;;;;44.33;38.33;;;;;2.43;84.68;100683.78;5093542;28;8870;-71
2022/01/21 11:20:21;;;;;;;;;43.67;41.00;;;;;2.87;82.19;100683.13;5113998;28;11544;-71
2022/01/21 11:22:58;;;;;;;;;27.50;25.75;;;;;2.76;77.53;100681.50;5119576;27;11583;-70
2022/01/21 11:25:58;;;;;;;;;37.50;35.00;;;;;3.35;76.81;100672.47;5119515;27;11569;-70
2022/01/21 11:28:53;;;;;;;;;35.50;34.25;;;;;3.68;74.64;100675.53;5116407;27;11486;-70
2022/01/21 11:31:50;;;;;;;;;29.25;29.25;;;;;3.72;72.63;100668.38;5099047;28;11647;-70
2022/01/21 11:34:17;;;;;;;;;25.50;25.50;;;;;3.57;71.56;100686.53;5107366;28;11502;-70
2022/01/21 11:37:13;;;;;;;;;28.50;26.50;;;;;2.98;70.62;100697.53;5112601;28;11538;-70
2022/01/21 11:40:09;;;;;;;;;51.50;43.75;;;;;3.46;72.30;100693.19;5112461;28;11538;-70
2022/01/21 11:42:39;;;;;;;;;14.25;10.25;;;;;3.73;68.55;100705.59;5119017;27;11520;-69
2022/01/21 11:48:51;;;;;;;;;22.00;20.50;;;;;4.23;64.46;100706.28;5133235;27;11496;-70
2022/01/21 11:51:47;;;;;;;;;23.00;23.00;;;;;4.19;63.20;100703.28;5110046;28;11506;-69
2022/01/21 11:54:43;;;;;;;;;27.00;22.25;;;;;3.98;63.97;100708.09;5112768;28;11592;-70
2022/01/21 11:57:38;;;;;;;;;28.75;28.25;;;;;4.41;62.42;100711.00;5112326;28;12364;-70
2022/01/21 12:00:34;;;;;;;;;18.00;18.00;;;;;4.11;61.29;100710.19;5112250;28;11465;-71
2022/01/21 12:03:02;;;;;;;;;19.75;16.50;;;;;4.46;59.87;100713.72;5113282;28;12363;-71
2022/01/21 12:05:58;;;;;;;;;22.25;18.00;;;;;4.25;58.96;100712.28;5112104;28;11483;-69
2022/01/21 12:08:55;;;;;;;;;12.50;12.50;;;;;4.29;58.62;100710.56;5112321;28;12301;-70
2022/01/21 12:11:56;;;;;;;;;17.25;17.25;;;;;4.32;60.05;100712.75;5112207;28;11495;-70
2022/01/21 12:14:37;;;;;;;;;10.00;10.00;;;;;4.02;58.32;100722.06;5103148;27;11509;-71
2022/01/21 12:17:41;;;;;;;;;9.75;9.50;;;;;3.95;58.99;100725.13;5131166;27;11506;-70
2022/01/21 12:20:37;;;;;;;;;11.75;11.75;;;;;3.71;60.68;100725.00;5107602;28;11507;-71
2022/01/21 12:23:44;;;;;;;;;15.50;15.00;;;;;3.74;59.85;100716.22;5100618;27;11464;-71
2022/01/21 15:28:44;;;;;;;;;12.33;12.33;;;;;-0.34;67.88;100776.69;5248015;23;8874;-70
2022/01/21 15:31:40;;;;;;;;;16.33;16.33;;;;;-0.37;68.18;100774.50;4877613;29;8859;-70
2022/01/21 15:34:08;;;;;;;;;12.67;12.67;;;;;-0.52;69.38;100774.34;4880852;29;8893;-70
2022/01/21 15:37:05;;;;;;;;;10.67;10.67;;;;;-0.47;69.42;100780.63;4898263;29;8880;-72
2022/01/21 15:40:01;;;;;;;;;13.00;13.00;;;;;-0.52;69.30;100779.78;4896358;29;9638;-70
2022/01/21 15:42:56;;;;;;;;;15.33;13.67;;;;;-0.67;69.75;100778.50;4878924;29;8870;-70
2022/01/21 15:45:53;;;;;;;;;12.00;11.33;;;;;-0.51;69.72;100781.41;4867836;29;8851;-71
2022/01/21 15:48:49;;;;;;;;;10.00;10.00;;;;;-0.64;70.26;100782.63;4892177;29;8914;-71
2022/01/21 15:51:46;;;;;;;;;11.67;11.67;;;;;-0.76;70.13;100785.47;4897485;29;8899;-71
2022/01/21 15:54:41;;;;;;;;;15.00;15.00;;;;;-0.73;70.27;100767.84;4890073;29;8871;-70
2022/01/21 15:57:39;;;;;;;;;14.33;10.67;;;;;-0.61;69.97;100772.06;4882983;29;8859;-70
2022/01/21 16:00:35;;;;;;;;;15.00;15.00;;;;;-0.67;70.22;100783.94;4879254;29;8894;-72
2022/01/21 16:03:39;;;;;;;;;10.00;10.00;;;;;-0.72;69.84;100781.16;4879752;29;8947;-70
2022/01/21 16:06:34;;;;;;;;;15.00;15.00;;;;;-0.66;69.39;100793.72;4894378;29;8886;-71
2022/01/21 16:09:30;;;;;;;;;9.33;9.33;;;;;-0.80;70.08;100805.22;4871130;29;8889;-70
2022/01/21 16:12:26;;;;;;;;;12.67;10.67;;;;;-0.70;69.97;100799.91;4878739;29;8894;-71
2022/01/21 16:15:21;;;;;;;;;15.00;12.00;;;;;-0.78;69.89;100789.50;4877056;29;8866;-70
2022/01/21 16:18:17;;;;;;;;;21.00;21.00;;;;;-0.89;69.78;100794.00;4877088;29;8924;-70
2022/01/21 16:21:13;;;;;;;;;15.67;15.00;;;;;-0.83;69.82;100809.28;4877107;29;8866;-70
2022/01/21 16:24:09;;;;;;;;;14.67;14.67;;;;;-1.01;71.48;100806.84;4878625;29;8878;-70
2022/01/21 16:27:05;;;;;;;;;13.00;13.00;;;;;-1.05;71.55;100811.97;4860408;29;8873;-71
2022/01/21 16:30:10;;;;;;;;;10.00;10.00;;;;;-1.19;72.57;100808.81;4860667;29;8873;-71
2022/01/21 16:33:06;;;;;;;;;9.67;8.33;;;;;-1.06;72.32;100804.91;4865638;29;8865;-71
2022/01/21 16:36:02;;;;;;;;;9.67;9.67;;;;;-1.04;72.82;100801.94;4892946;29;8893;-70
2022/01/21 16:38:59;;;;;;;;;13.67;12.33;;;;;-1.02;71.87;100799.78;4881992;29;8977;-70
2022/01/21 16:41:54;;;;;;;;;13.00;13.00;;;;;-0.92;71.09;100798.06;4893008;29;8917;-71
2022/01/21 16:44:50;;;;;;;;;8.33;8.33;;;;;-1.10;70.67;100802.94;4895126;29;8878;-70
2022/01/21 16:47:47;;;;;;;;;9.67;9.67;;;;;-0.96;71.11;100810.47;4881822;29;8879;-70
2022/01/21 16:50:42;;;;;;;;;17.67;15.67;;;;;-0.90;71.39;100812.19;4881828;29;8893;-70
2022/01/21 16:53:26;;;;;;;;;10.00;10.00;;;;;-0.99;71.54;100818.31;4881584;29;8890;-70